sensor_id;sensor_type;location;lat;lon;timestamp;P1;durP1;ratioP1;P2;durP2;ratioP2
76023;SDS011;64719;52.124;6.226;2023-04-24T00:00:23;8.25;;;5.15;;
76023;SDS011;64719;52.124;6.226;2023-04-24T00:02:50;8.93;;;5.60;;
76023;SDS011;64719;52.124;6.226;2023-04-24T00:05:16;9.25;;;4.70;;
76023;SDS011;64719;52.124;6.226;2023-04-24T00:07:44;9.80;;;5.15;;
76023;SDS011;64719;52.124;6.226;2023-04-24T00:10:11;8.25;;;4.93;;
76023;SDS011;64719;52.124;6.226;2023-04-24T00:12:39;8.90;;;5.63;;
76023;SDS011;64719;52.124;6.226;2023-04-24T00:15:06;7.35;;;4.63;;
76023;SDS011;64719;52.124;6.226;2023-04-24T00:17:34;8.55;;;5.28;;
76023;SDS011;64719;52.124;6.226;2023-04-24T00:20:00;9.63;;;5.28;;
76023;SDS011;64719;52.124;6.226;2023-04-24T00:22:29;10.27;;;5.47;;
76023;SDS011;64719;52.124;6.226;2023-04-24T00:24:56;10.80;;;6.88;;
76023;SDS011;64719;52.124;6.226;2023-04-24T00:27:23;13.52;;;6.10;;
76023;SDS011;64719;52.124;6.226;2023-04-24T00:29:51;9.88;;;5.80;;
76023;SDS011;64719;52.124;6.226;2023-04-24T00:32:18;12.07;;;7.22;;
76023;SDS011;64719;52.124;6.226;2023-04-24T00:34:44;12.38;;;6.82;;
76023;SDS011;64719;52.124;6.226;2023-04-24T00:37:11;12.98;;;6.93;;
76023;SDS011;64719;52.124;6.226;2023-04-24T00:39:37;11.48;;;6.72;;
76023;SDS011;64719;52.124;6.226;2023-04-24T00:42:04;12.98;;;7.40;;
76023;SDS011;64719;52.124;6.226;2023-04-24T00:44:31;12.32;;;7.05;;
76023;SDS011;64719;52.124;6.226;2023-04-24T00:47:00;12.55;;;7.47;;
76023;SDS011;64719;52.124;6.226;2023-04-24T00:49:27;12.82;;;7.05;;
76023;SDS011;64719;52.124;6.226;2023-04-24T00:51:53;11.20;;;6.63;;
76023;SDS011;64719;52.124;6.226;2023-04-24T00:54:20;12.10;;;6.90;;
76023;SDS011;64719;52.124;6.226;2023-04-24T00:56:46;8.75;;;4.40;;
76023;SDS011;64719;52.124;6.226;2023-04-24T00:59:14;6.75;;;4.28;;
76023;SDS011;64719;52.124;6.226;2023-04-24T01:01:43;5.95;;;3.63;;
76023;SDS011;64719;52.124;6.226;2023-04-24T01:04:12;5.57;;;3.55;;
76023;SDS011;64719;52.124;6.226;2023-04-24T01:06:38;6.85;;;3.95;;
76023;SDS011;64719;52.124;6.226;2023-04-24T01:09:06;6.28;;;3.72;;
76023;SDS011;64719;52.124;6.226;2023-04-24T01:11:33;5.25;;;3.50;;
76023;SDS011;64719;52.124;6.226;2023-04-24T01:14:00;5.78;;;3.85;;
76023;SDS011;64719;52.124;6.226;2023-04-24T01:16:27;6.05;;;3.70;;
76023;SDS011;64719;52.124;6.226;2023-04-24T01:18:54;6.78;;;3.92;;
76023;SDS011;64719;52.124;6.226;2023-04-24T01:21:22;5.97;;;3.58;;
76023;SDS011;64719;52.124;6.226;2023-04-24T01:23:55;7.03;;;3.45;;
76023;SDS011;64719;52.124;6.226;2023-04-24T01:26:22;5.72;;;3.20;;
76023;SDS011;64719;52.124;6.226;2023-04-24T01:28:50;7.25;;;3.80;;
76023;SDS011;64719;52.124;6.226;2023-04-24T01:31:17;6.93;;;3.60;;
76023;SDS011;64719;52.124;6.226;2023-04-24T01:33:44;6.10;;;4.13;;
76023;SDS011;64719;52.124;6.226;2023-04-24T01:36:11;9.52;;;4.80;;
76023;SDS011;64719;52.124;6.226;2023-04-24T01:38:37;9.10;;;5.10;;
76023;SDS011;64719;52.124;6.226;2023-04-24T01:41:05;10.13;;;5.80;;
76023;SDS011;64719;52.124;6.226;2023-04-24T01:43:32;13.65;;;6.55;;
76023;SDS011;64719;52.124;6.226;2023-04-24T01:45:58;12.90;;;6.60;;
76023;SDS011;64719;52.124;6.226;2023-04-24T01:48:25;17.48;;;8.18;;
76023;SDS011;64719;52.124;6.226;2023-04-24T01:50:52;22.25;;;10.57;;
76023;SDS011;64719;52.124;6.226;2023-04-24T01:53:18;21.08;;;11.00;;
76023;SDS011;64719;52.124;6.226;2023-04-24T01:55:45;22.85;;;11.38;;
76023;SDS011;64719;52.124;6.226;2023-04-24T01:58:14;20.65;;;10.30;;
76023;SDS011;64719;52.124;6.226;2023-04-24T02:00:40;21.65;;;11.40;;
76023;SDS011;64719;52.124;6.226;2023-04-24T02:03:07;21.58;;;10.82;;
76023;SDS011;64719;52.124;6.226;2023-04-24T02:05:33;22.58;;;10.75;;
76023;SDS011;64719;52.124;6.226;2023-04-24T02:08:00;21.73;;;10.30;;
76023;SDS011;64719;52.124;6.226;2023-04-24T02:10:26;21.00;;;10.35;;
76023;SDS011;64719;52.124;6.226;2023-04-24T02:12:53;20.95;;;9.15;;
76023;SDS011;64719;52.124;6.226;2023-04-24T02:15:21;17.13;;;8.00;;
76023;SDS011;64719;52.124;6.226;2023-04-24T02:17:47;13.40;;;6.57;;
76023;SDS011;64719;52.124;6.226;2023-04-24T02:20:13;11.02;;;5.15;;
76023;SDS011;64719;52.124;6.226;2023-04-24T02:22:40;8.20;;;4.18;;
76023;SDS011;64719;52.124;6.226;2023-04-24T02:25:07;8.23;;;3.92;;
76023;SDS011;64719;52.124;6.226;2023-04-24T02:27:34;9.27;;;3.90;;
76023;SDS011;64719;52.124;6.226;2023-04-24T02:30:00;8.35;;;3.97;;
76023;SDS011;64719;52.124;6.226;2023-04-24T02:32:29;9.60;;;3.90;;
76023;SDS011;64719;52.124;6.226;2023-04-24T02:34:55;8.38;;;3.85;;
76023;SDS011;64719;52.124;6.226;2023-04-24T02:37:22;5.65;;;3.03;;
76023;SDS011;64719;52.124;6.226;2023-04-24T02:39:48;6.38;;;3.58;;
76023;SDS011;64719;52.124;6.226;2023-04-24T02:42:15;7.15;;;3.53;;
76023;SDS011;64719;52.124;6.226;2023-04-24T02:44:41;5.22;;;2.83;;
76023;SDS011;64719;52.124;6.226;2023-04-24T02:47:08;6.03;;;2.45;;
76023;SDS011;64719;52.124;6.226;2023-04-24T02:49:36;5.28;;;3.00;;
76023;SDS011;64719;52.124;6.226;2023-04-24T02:52:02;6.47;;;3.20;;
76023;SDS011;64719;52.124;6.226;2023-04-24T02:54:29;8.85;;;3.85;;
76023;SDS011;64719;52.124;6.226;2023-04-24T02:56:55;9.95;;;3.65;;
76023;SDS011;64719;52.124;6.226;2023-04-24T02:59:22;8.40;;;3.80;;
76023;SDS011;64719;52.124;6.226;2023-04-24T03:01:49;9.65;;;4.40;;
76023;SDS011;64719;52.124;6.226;2023-04-24T03:04:15;9.13;;;4.45;;
76023;SDS011;64719;52.124;6.226;2023-04-24T03:06:46;11.05;;;4.88;;
76023;SDS011;64719;52.124;6.226;2023-04-24T03:09:12;14.82;;;6.35;;
76023;SDS011;64719;52.124;6.226;2023-04-24T03:11:39;16.85;;;8.25;;
76023;SDS011;64719;52.124;6.226;2023-04-24T03:14:06;21.27;;;9.35;;
76023;SDS011;64719;52.124;6.226;2023-04-24T03:16:33;26.17;;;11.95;;
76023;SDS011;64719;52.124;6.226;2023-04-24T03:18:59;31.38;;;13.55;;
76023;SDS011;64719;52.124;6.226;2023-04-24T03:21:26;28.73;;;13.52;;
76023;SDS011;64719;52.124;6.226;2023-04-24T03:23:54;30.48;;;13.88;;
76023;SDS011;64719;52.124;6.226;2023-04-24T03:26:20;32.17;;;14.85;;
76023;SDS011;64719;52.124;6.226;2023-04-24T03:28:49;34.97;;;14.73;;
76023;SDS011;64719;52.124;6.226;2023-04-24T03:31:15;32.17;;;13.95;;
76023;SDS011;64719;52.124;6.226;2023-04-24T03:33:42;38.75;;;15.82;;
76023;SDS011;64719;52.124;6.226;2023-04-24T03:36:08;32.25;;;14.57;;
76023;SDS011;64719;52.124;6.226;2023-04-24T03:38:35;33.50;;;13.93;;
76023;SDS011;64719;52.124;6.226;2023-04-24T03:41:03;31.60;;;14.07;;
76023;SDS011;64719;52.124;6.226;2023-04-24T03:43:29;32.35;;;13.88;;
76023;SDS011;64719;52.124;6.226;2023-04-24T03:45:58;23.33;;;10.85;;
76023;SDS011;64719;52.124;6.226;2023-04-24T03:48:24;28.05;;;11.68;;
76023;SDS011;64719;52.124;6.226;2023-04-24T03:50:51;24.30;;;10.88;;
76023;SDS011;64719;52.124;6.226;2023-04-24T03:53:17;20.75;;;10.13;;
76023;SDS011;64719;52.124;6.226;2023-04-24T03:55:44;20.73;;;10.00;;
76023;SDS011;64719;52.124;6.226;2023-04-24T03:58:12;16.67;;;8.73;;
76023;SDS011;64719;52.124;6.226;2023-04-24T04:00:39;19.95;;;9.63;;
76023;SDS011;64719;52.124;6.226;2023-04-24T04:03:06;17.85;;;8.93;;
76023;SDS011;64719;52.124;6.226;2023-04-24T04:05:32;25.55;;;11.48;;
76023;SDS011;64719;52.124;6.226;2023-04-24T04:07:59;25.50;;;11.65;;
76023;SDS011;64719;52.124;6.226;2023-04-24T04:10:25;27.77;;;13.35;;
76023;SDS011;64719;52.124;6.226;2023-04-24T04:12:52;32.88;;;13.93;;
76023;SDS011;64719;52.124;6.226;2023-04-24T04:15:20;32.67;;;14.70;;
76023;SDS011;64719;52.124;6.226;2023-04-24T04:17:46;31.92;;;15.32;;
76023;SDS011;64719;52.124;6.226;2023-04-24T04:20:13;37.88;;;17.33;;
76023;SDS011;64719;52.124;6.226;2023-04-24T04:22:39;36.60;;;18.15;;
76023;SDS011;64719;52.124;6.226;2023-04-24T04:25:06;40.00;;;17.38;;
76023;SDS011;64719;52.124;6.226;2023-04-24T04:27:33;41.90;;;19.75;;
76023;SDS011;64719;52.124;6.226;2023-04-24T04:30:00;48.25;;;21.23;;
76023;SDS011;64719;52.124;6.226;2023-04-24T04:32:31;55.88;;;21.70;;
76023;SDS011;64719;52.124;6.226;2023-04-24T04:34:58;50.42;;;22.20;;
76023;SDS011;64719;52.124;6.226;2023-04-24T04:37:28;49.08;;;23.13;;
76023;SDS011;64719;52.124;6.226;2023-04-24T04:39:54;49.97;;;22.42;;
76023;SDS011;64719;52.124;6.226;2023-04-24T04:42:21;48.15;;;22.38;;
76023;SDS011;64719;52.124;6.226;2023-04-24T04:44:48;55.35;;;24.85;;
76023;SDS011;64719;52.124;6.226;2023-04-24T04:47:15;51.20;;;23.48;;
76023;SDS011;64719;52.124;6.226;2023-04-24T04:49:43;53.28;;;23.95;;
76023;SDS011;64719;52.124;6.226;2023-04-24T04:52:10;47.28;;;20.80;;
76023;SDS011;64719;52.124;6.226;2023-04-24T04:54:36;47.92;;;22.33;;
76023;SDS011;64719;52.124;6.226;2023-04-24T04:57:03;47.45;;;22.20;;
76023;SDS011;64719;52.124;6.226;2023-04-24T04:59:29;41.67;;;20.23;;
76023;SDS011;64719;52.124;6.226;2023-04-24T05:01:56;44.72;;;19.63;;
76023;SDS011;64719;52.124;6.226;2023-04-24T05:04:22;43.85;;;19.48;;
76023;SDS011;64719;52.124;6.226;2023-04-24T05:06:50;44.83;;;18.73;;
76023;SDS011;64719;52.124;6.226;2023-04-24T05:09:17;46.25;;;20.58;;
76023;SDS011;64719;52.124;6.226;2023-04-24T05:11:43;50.20;;;20.63;;
76023;SDS011;64719;52.124;6.226;2023-04-24T05:14:10;47.83;;;20.67;;
76023;SDS011;64719;52.124;6.226;2023-04-24T05:16:37;43.42;;;19.45;;
76023;SDS011;64719;52.124;6.226;2023-04-24T05:19:04;42.58;;;20.10;;
76023;SDS011;64719;52.124;6.226;2023-04-24T05:21:30;42.60;;;19.35;;
76023;SDS011;64719;52.124;6.226;2023-04-24T05:23:58;39.38;;;19.90;;
76023;SDS011;64719;52.124;6.226;2023-04-24T05:26:25;42.42;;;18.67;;
76023;SDS011;64719;52.124;6.226;2023-04-24T05:28:52;41.30;;;18.58;;
76023;SDS011;64719;52.124;6.226;2023-04-24T05:31:18;41.25;;;19.55;;
76023;SDS011;64719;52.124;6.226;2023-04-24T05:33:45;40.15;;;18.65;;
76023;SDS011;64719;52.124;6.226;2023-04-24T05:36:11;46.97;;;18.70;;
76023;SDS011;64719;52.124;6.226;2023-04-24T05:38:38;39.25;;;18.38;;
76023;SDS011;64719;52.124;6.226;2023-04-24T05:41:06;38.38;;;18.52;;
76023;SDS011;64719;52.124;6.226;2023-04-24T05:43:32;39.58;;;17.20;;
76023;SDS011;64719;52.124;6.226;2023-04-24T05:45:59;39.85;;;17.50;;
76023;SDS011;64719;52.124;6.226;2023-04-24T05:48:25;37.95;;;18.00;;
76023;SDS011;64719;52.124;6.226;2023-04-24T05:50:52;38.85;;;17.60;;
76023;SDS011;64719;52.124;6.226;2023-04-24T05:53:18;39.58;;;17.20;;
76023;SDS011;64719;52.124;6.226;2023-04-24T05:55:45;34.85;;;16.98;;
76023;SDS011;64719;52.124;6.226;2023-04-24T05:58:13;31.50;;;15.70;;
76023;SDS011;64719;52.124;6.226;2023-04-24T06:00:40;35.88;;;16.95;;
76023;SDS011;64719;52.124;6.226;2023-04-24T06:03:08;40.60;;;17.40;;
76023;SDS011;64719;52.124;6.226;2023-04-24T06:05:34;38.65;;;17.85;;
76023;SDS011;64719;52.124;6.226;2023-04-24T06:08:01;37.53;;;17.17;;
76023;SDS011;64719;52.124;6.226;2023-04-24T06:10:27;38.30;;;16.63;;
76023;SDS011;64719;52.124;6.226;2023-04-24T06:12:54;38.53;;;16.08;;
76023;SDS011;64719;52.124;6.226;2023-04-24T06:15:26;31.63;;;14.68;;
76023;SDS011;64719;52.124;6.226;2023-04-24T06:17:54;33.67;;;15.30;;
76023;SDS011;64719;52.124;6.226;2023-04-24T06:20:20;33.38;;;15.70;;
76023;SDS011;64719;52.124;6.226;2023-04-24T06:22:47;33.28;;;14.75;;
76023;SDS011;64719;52.124;6.226;2023-04-24T06:25:13;31.58;;;14.38;;
76023;SDS011;64719;52.124;6.226;2023-04-24T06:27:40;27.85;;;13.88;;
76023;SDS011;64719;52.124;6.226;2023-04-24T06:30:07;30.48;;;14.23;;
76023;SDS011;64719;52.124;6.226;2023-04-24T06:32:36;32.08;;;14.77;;
76023;SDS011;64719;52.124;6.226;2023-04-24T06:35:02;28.60;;;13.80;;
76023;SDS011;64719;52.124;6.226;2023-04-24T06:37:29;26.60;;;12.55;;
76023;SDS011;64719;52.124;6.226;2023-04-24T06:39:57;30.40;;;13.50;;
76023;SDS011;64719;52.124;6.226;2023-04-24T06:42:23;27.05;;;12.32;;
76023;SDS011;64719;52.124;6.226;2023-04-24T06:44:50;28.15;;;12.98;;
76023;SDS011;64719;52.124;6.226;2023-04-24T06:47:16;28.67;;;12.93;;
76023;SDS011;64719;52.124;6.226;2023-04-24T06:49:45;32.33;;;13.23;;
76023;SDS011;64719;52.124;6.226;2023-04-24T06:52:11;35.30;;;14.63;;
76023;SDS011;64719;52.124;6.226;2023-04-24T06:54:37;28.77;;;13.05;;
76023;SDS011;64719;52.124;6.226;2023-04-24T06:57:04;25.40;;;11.20;;
76023;SDS011;64719;52.124;6.226;2023-04-24T06:59:30;28.58;;;11.98;;
76023;SDS011;64719;52.124;6.226;2023-04-24T07:01:57;24.70;;;12.05;;
76023;SDS011;64719;52.124;6.226;2023-04-24T07:04:23;23.20;;;10.43;;
76023;SDS011;64719;52.124;6.226;2023-04-24T07:06:51;23.38;;;10.68;;
76023;SDS011;64719;52.124;6.226;2023-04-24T07:09:20;21.60;;;9.85;;
76023;SDS011;64719;52.124;6.226;2023-04-24T07:11:48;19.48;;;9.32;;
76023;SDS011;64719;52.124;6.226;2023-04-24T07:14:15;20.80;;;9.63;;
76023;SDS011;64719;52.124;6.226;2023-04-24T07:16:42;18.02;;;8.43;;
76023;SDS011;64719;52.124;6.226;2023-04-24T07:19:08;18.02;;;8.10;;
76023;SDS011;64719;52.124;6.226;2023-04-24T07:21:35;20.48;;;9.10;;
76023;SDS011;64719;52.124;6.226;2023-04-24T07:24:03;17.65;;;8.25;;
76023;SDS011;64719;52.124;6.226;2023-04-24T07:26:30;14.10;;;6.85;;
76023;SDS011;64719;52.124;6.226;2023-04-24T07:28:56;11.73;;;6.15;;
76023;SDS011;64719;52.124;6.226;2023-04-24T07:31:23;12.48;;;5.68;;
76023;SDS011;64719;52.124;6.226;2023-04-24T07:33:50;8.70;;;5.00;;
76023;SDS011;64719;52.124;6.226;2023-04-24T07:36:16;8.30;;;3.92;;
76023;SDS011;64719;52.124;6.226;2023-04-24T07:38:44;7.25;;;3.78;;
76023;SDS011;64719;52.124;6.226;2023-04-24T07:41:12;6.40;;;3.53;;
76023;SDS011;64719;52.124;6.226;2023-04-24T07:43:38;6.53;;;3.47;;
76023;SDS011;64719;52.124;6.226;2023-04-24T07:46:05;8.93;;;3.78;;
76023;SDS011;64719;52.124;6.226;2023-04-24T07:48:31;6.45;;;3.58;;
76023;SDS011;64719;52.124;6.226;2023-04-24T07:50:58;6.35;;;3.00;;
76023;SDS011;64719;52.124;6.226;2023-04-24T07:53:25;9.02;;;3.20;;
76023;SDS011;64719;52.124;6.226;2023-04-24T07:55:51;5.43;;;2.63;;
76023;SDS011;64719;52.124;6.226;2023-04-24T07:58:19;4.32;;;2.58;;
76023;SDS011;64719;52.124;6.226;2023-04-24T08:00:46;5.25;;;2.95;;
76023;SDS011;64719;52.124;6.226;2023-04-24T08:03:13;5.63;;;2.92;;
76023;SDS011;64719;52.124;6.226;2023-04-24T08:05:39;4.47;;;2.53;;
76023;SDS011;64719;52.124;6.226;2023-04-24T08:08:08;4.15;;;2.10;;
76023;SDS011;64719;52.124;6.226;2023-04-24T08:10:34;4.18;;;2.15;;
76023;SDS011;64719;52.124;6.226;2023-04-24T08:13:01;4.78;;;2.00;;
76023;SDS011;64719;52.124;6.226;2023-04-24T08:15:29;5.63;;;2.10;;
76023;SDS011;64719;52.124;6.226;2023-04-24T08:17:55;2.85;;;1.70;;
76023;SDS011;64719;52.124;6.226;2023-04-24T08:20:23;3.88;;;1.90;;
76023;SDS011;64719;52.124;6.226;2023-04-24T08:22:49;4.85;;;2.28;;
76023;SDS011;64719;52.124;6.226;2023-04-24T08:25:16;3.55;;;2.33;;
76023;SDS011;64719;52.124;6.226;2023-04-24T08:27:44;3.85;;;2.45;;
76023;SDS011;64719;52.124;6.226;2023-04-24T08:30:10;5.40;;;2.97;;
76023;SDS011;64719;52.124;6.226;2023-04-24T08:32:39;7.10;;;4.05;;
76023;SDS011;64719;52.124;6.226;2023-04-24T08:35:06;8.88;;;4.80;;
76023;SDS011;64719;52.124;6.226;2023-04-24T08:40:01;12.23;;;6.10;;
76023;SDS011;64719;52.124;6.226;2023-04-24T08:42:37;10.95;;;6.35;;
76023;SDS011;64719;52.124;6.226;2023-04-24T08:45:05;11.10;;;6.80;;
76023;SDS011;64719;52.124;6.226;2023-04-24T08:47:33;12.85;;;6.88;;
76023;SDS011;64719;52.124;6.226;2023-04-24T08:50:03;15.55;;;6.82;;
76023;SDS011;64719;52.124;6.226;2023-04-24T08:52:31;18.25;;;8.70;;
76023;SDS011;64719;52.124;6.226;2023-04-24T08:54:58;11.75;;;7.50;;
76023;SDS011;64719;52.124;6.226;2023-04-24T08:57:26;17.80;;;8.18;;
76023;SDS011;64719;52.124;6.226;2023-04-24T08:59:54;13.98;;;7.65;;
76023;SDS011;64719;52.124;6.226;2023-04-24T09:02:22;14.27;;;8.52;;
76023;SDS011;64719;52.124;6.226;2023-04-24T09:04:49;15.88;;;7.78;;
76023;SDS011;64719;52.124;6.226;2023-04-24T09:07:18;15.10;;;8.20;;
76023;SDS011;64719;52.124;6.226;2023-04-24T09:09:45;14.18;;;7.05;;
76023;SDS011;64719;52.124;6.226;2023-04-24T09:12:13;16.98;;;7.25;;
76023;SDS011;64719;52.124;6.226;2023-04-24T09:14:40;14.57;;;6.57;;
76023;SDS011;64719;52.124;6.226;2023-04-24T09:17:10;15.05;;;7.18;;
76023;SDS011;64719;52.124;6.226;2023-04-24T09:19:36;13.85;;;7.15;;
76023;SDS011;64719;52.124;6.226;2023-04-24T09:22:04;13.32;;;7.57;;
76023;SDS011;64719;52.124;6.226;2023-04-24T09:24:33;14.90;;;7.65;;
76023;SDS011;64719;52.124;6.226;2023-04-24T09:27:00;15.48;;;7.55;;
76023;SDS011;64719;52.124;6.226;2023-04-24T09:29:27;15.48;;;7.80;;
76023;SDS011;64719;52.124;6.226;2023-04-24T09:31:54;14.95;;;7.18;;
76023;SDS011;64719;52.124;6.226;2023-04-24T09:34:22;13.90;;;6.97;;
76023;SDS011;64719;52.124;6.226;2023-04-24T09:36:49;12.13;;;6.47;;
76023;SDS011;64719;52.124;6.226;2023-04-24T09:39:16;13.43;;;6.75;;
76023;SDS011;64719;52.124;6.226;2023-04-24T09:44:14;13.10;;;5.85;;
76023;SDS011;64719;52.124;6.226;2023-04-24T09:46:42;8.88;;;4.53;;
76023;SDS011;64719;52.124;6.226;2023-04-24T09:49:09;9.80;;;3.35;;
76023;SDS011;64719;52.124;6.226;2023-04-24T09:51:37;8.05;;;3.65;;
76023;SDS011;64719;52.124;6.226;2023-04-24T09:54:05;8.00;;;3.28;;
76023;SDS011;64719;52.124;6.226;2023-04-24T09:56:41;10.10;;;3.60;;
76023;SDS011;64719;52.124;6.226;2023-04-24T09:59:11;7.05;;;2.60;;
76023;SDS011;64719;52.124;6.226;2023-04-24T10:04:08;8.30;;;2.80;;
76023;SDS011;64719;52.124;6.226;2023-04-24T10:06:41;10.77;;;3.55;;
76023;SDS011;64719;52.124;6.226;2023-04-24T10:09:08;11.18;;;3.58;;
76023;SDS011;64719;52.124;6.226;2023-04-24T10:11:36;15.60;;;3.63;;
76023;SDS011;64719;52.124;6.226;2023-04-24T10:14:03;14.85;;;3.67;;
76023;SDS011;64719;52.124;6.226;2023-04-24T10:16:32;10.10;;;3.58;;
76023;SDS011;64719;52.124;6.226;2023-04-24T10:18:59;10.55;;;3.33;;
76023;SDS011;64719;52.124;6.226;2023-04-24T10:21:26;11.77;;;3.88;;
76023;SDS011;64719;52.124;6.226;2023-04-24T10:23:52;11.43;;;3.17;;
76023;SDS011;64719;52.124;6.226;2023-04-24T10:26:20;7.63;;;3.10;;
76023;SDS011;64719;52.124;6.226;2023-04-24T10:28:48;10.57;;;3.05;;
76023;SDS011;64719;52.124;6.226;2023-04-24T10:31:16;12.63;;;3.47;;
76023;SDS011;64719;52.124;6.226;2023-04-24T10:33:44;9.05;;;3.38;;
76023;SDS011;64719;52.124;6.226;2023-04-24T10:36:12;16.98;;;3.95;;
76023;SDS011;64719;52.124;6.226;2023-04-24T10:38:41;9.60;;;3.13;;
76023;SDS011;64719;52.124;6.226;2023-04-24T10:41:10;9.60;;;2.97;;
76023;SDS011;64719;52.124;6.226;2023-04-24T10:43:41;12.38;;;2.88;;
76023;SDS011;64719;52.124;6.226;2023-04-24T10:46:08;9.30;;;3.13;;
76023;SDS011;64719;52.124;6.226;2023-04-24T10:48:36;8.48;;;3.20;;
76023;SDS011;64719;52.124;6.226;2023-04-24T10:51:12;6.90;;;2.55;;
76023;SDS011;64719;52.124;6.226;2023-04-24T10:53:39;5.70;;;2.38;;
76023;SDS011;64719;52.124;6.226;2023-04-24T10:56:06;6.35;;;2.30;;
76023;SDS011;64719;52.124;6.226;2023-04-24T10:58:39;4.03;;;1.70;;
76023;SDS011;64719;52.124;6.226;2023-04-24T11:01:10;6.78;;;1.90;;
76023;SDS011;64719;52.124;6.226;2023-04-24T11:03:50;6.18;;;2.35;;
76023;SDS011;64719;52.124;6.226;2023-04-24T11:06:21;6.63;;;1.90;;
76023;SDS011;64719;52.124;6.226;2023-04-24T11:08:59;4.55;;;1.98;;
76023;SDS011;64719;52.124;6.226;2023-04-24T11:11:29;5.97;;;1.95;;
76023;SDS011;64719;52.124;6.226;2023-04-24T11:14:03;10.75;;;2.40;;
76023;SDS011;64719;52.124;6.226;2023-04-24T11:16:32;9.52;;;2.58;;
76023;SDS011;64719;52.124;6.226;2023-04-24T11:19:00;11.95;;;2.35;;
76023;SDS011;64719;52.124;6.226;2023-04-24T11:21:32;7.10;;;2.17;;
76023;SDS011;64719;52.124;6.226;2023-04-24T11:26:57;7.75;;;2.60;;
76023;SDS011;64719;52.124;6.226;2023-04-24T11:29:44;6.80;;;2.30;;
76023;SDS011;64719;52.124;6.226;2023-04-24T11:32:22;7.35;;;2.45;;
76023;SDS011;64719;52.124;6.226;2023-04-24T11:34:51;6.35;;;2.60;;
76023;SDS011;64719;52.124;6.226;2023-04-24T11:37:19;9.82;;;2.75;;
76023;SDS011;64719;52.124;6.226;2023-04-24T11:39:49;7.25;;;2.25;;
76023;SDS011;64719;52.124;6.226;2023-04-24T11:42:17;6.32;;;2.17;;
76023;SDS011;64719;52.124;6.226;2023-04-24T11:44:44;5.47;;;2.10;;
76023;SDS011;64719;52.124;6.226;2023-04-24T11:47:12;6.57;;;2.20;;
76023;SDS011;64719;52.124;6.226;2023-04-24T11:49:39;6.82;;;1.85;;
76023;SDS011;64719;52.124;6.226;2023-04-24T11:52:05;7.32;;;2.20;;
76023;SDS011;64719;52.124;6.226;2023-04-24T11:54:33;3.40;;;1.80;;
76023;SDS011;64719;52.124;6.226;2023-04-24T11:57:01;3.67;;;1.50;;
76023;SDS011;64719;52.124;6.226;2023-04-24T11:59:34;5.15;;;1.60;;
76023;SDS011;64719;52.124;6.226;2023-04-24T12:02:01;4.15;;;1.50;;
76023;SDS011;64719;52.124;6.226;2023-04-24T12:04:37;5.28;;;1.73;;
76023;SDS011;64719;52.124;6.226;2023-04-24T12:07:05;3.72;;;1.60;;
76023;SDS011;64719;52.124;6.226;2023-04-24T12:09:44;4.15;;;1.45;;
76023;SDS011;64719;52.124;6.226;2023-04-24T12:12:12;5.22;;;1.23;;
76023;SDS011;64719;52.124;6.226;2023-04-24T12:14:42;3.15;;;1.20;;
76023;SDS011;64719;52.124;6.226;2023-04-24T12:17:23;5.13;;;1.58;;
76023;SDS011;64719;52.124;6.226;2023-04-24T12:19:51;5.53;;;1.50;;
76023;SDS011;64719;52.124;6.226;2023-04-24T12:22:18;2.83;;;1.30;;
76023;SDS011;64719;52.124;6.226;2023-04-24T12:25:02;4.00;;;1.27;;
76023;SDS011;64719;52.124;6.226;2023-04-24T12:27:30;3.95;;;1.33;;
76023;SDS011;64719;52.124;6.226;2023-04-24T12:29:58;3.83;;;1.10;;
76023;SDS011;64719;52.124;6.226;2023-04-24T12:34:53;6.72;;;1.65;;
76023;SDS011;64719;52.124;6.226;2023-04-24T12:42:36;5.40;;;1.38;;
76023;SDS011;64719;52.124;6.226;2023-04-24T12:45:07;5.00;;;1.48;;
76023;SDS011;64719;52.124;6.226;2023-04-24T12:47:34;3.40;;;1.25;;
76023;SDS011;64719;52.124;6.226;2023-04-24T12:50:01;4.80;;;1.38;;
76023;SDS011;64719;52.124;6.226;2023-04-24T12:52:28;4.07;;;1.30;;
76023;SDS011;64719;52.124;6.226;2023-04-24T12:54:56;3.67;;;1.23;;
76023;SDS011;64719;52.124;6.226;2023-04-24T12:57:25;8.18;;;1.25;;
76023;SDS011;64719;52.124;6.226;2023-04-24T12:59:53;3.05;;;1.02;;
76023;SDS011;64719;52.124;6.226;2023-04-24T13:02:20;5.15;;;1.58;;
76023;SDS011;64719;52.124;6.226;2023-04-24T13:04:47;5.47;;;1.30;;
76023;SDS011;64719;52.124;6.226;2023-04-24T13:07:14;3.40;;;1.20;;
76023;SDS011;64719;52.124;6.226;2023-04-24T13:09:40;5.10;;;1.30;;
76023;SDS011;64719;52.124;6.226;2023-04-24T13:12:08;2.78;;;1.10;;
76023;SDS011;64719;52.124;6.226;2023-04-24T13:14:36;2.55;;;1.05;;
76023;SDS011;64719;52.124;6.226;2023-04-24T13:19:34;3.28;;;1.10;;
76023;SDS011;64719;52.124;6.226;2023-04-24T13:22:01;3.20;;;1.00;;
76023;SDS011;64719;52.124;6.226;2023-04-24T13:24:28;3.47;;;1.10;;
76023;SDS011;64719;52.124;6.226;2023-04-24T13:26:56;3.65;;;1.23;;
76023;SDS011;64719;52.124;6.226;2023-04-24T13:29:23;4.47;;;1.13;;
76023;SDS011;64719;52.124;6.226;2023-04-24T13:31:51;4.22;;;0.98;;
76023;SDS011;64719;52.124;6.226;2023-04-24T13:34:19;2.03;;;0.90;;
76023;SDS011;64719;52.124;6.226;2023-04-24T13:36:46;2.97;;;0.88;;
76023;SDS011;64719;52.124;6.226;2023-04-24T13:39:13;1.55;;;0.80;;
76023;SDS011;64719;52.124;6.226;2023-04-24T13:41:40;4.13;;;1.30;;
76023;SDS011;64719;52.124;6.226;2023-04-24T13:44:07;3.50;;;1.15;;
76023;SDS011;64719;52.124;6.226;2023-04-24T13:46:34;5.40;;;1.55;;
76023;SDS011;64719;52.124;6.226;2023-04-24T13:49:02;2.60;;;1.40;;
76023;SDS011;64719;52.124;6.226;2023-04-24T13:53:56;3.00;;;1.15;;
76023;SDS011;64719;52.124;6.226;2023-04-24T13:56:22;3.38;;;1.13;;
76023;SDS011;64719;52.124;6.226;2023-04-24T13:58:49;6.15;;;1.65;;
76023;SDS011;64719;52.124;6.226;2023-04-24T14:01:16;2.10;;;1.10;;
76023;SDS011;64719;52.124;6.226;2023-04-24T14:03:42;5.20;;;1.35;;
76023;SDS011;64719;52.124;6.226;2023-04-24T14:06:10;5.43;;;1.40;;
76023;SDS011;64719;52.124;6.226;2023-04-24T14:08:37;4.20;;;1.50;;
76023;SDS011;64719;52.124;6.226;2023-04-24T14:11:04;5.20;;;1.88;;
76023;SDS011;64719;52.124;6.226;2023-04-24T14:13:30;6.95;;;1.77;;
76023;SDS011;64719;52.124;6.226;2023-04-24T14:15:57;2.20;;;1.33;;
76023;SDS011;64719;52.124;6.226;2023-04-24T14:18:24;5.88;;;1.75;;
76023;SDS011;64719;52.124;6.226;2023-04-24T14:20:51;6.22;;;1.50;;
76023;SDS011;64719;52.124;6.226;2023-04-24T14:23:19;3.78;;;1.40;;
76023;SDS011;64719;52.124;6.226;2023-04-24T14:25:46;8.05;;;1.70;;
76023;SDS011;64719;52.124;6.226;2023-04-24T14:28:15;7.15;;;2.13;;
76023;SDS011;64719;52.124;6.226;2023-04-24T14:30:42;8.32;;;2.10;;
76023;SDS011;64719;52.124;6.226;2023-04-24T14:33:09;9.68;;;2.17;;
76023;SDS011;64719;52.124;6.226;2023-04-24T14:35:37;4.18;;;1.50;;
76023;SDS011;64719;52.124;6.226;2023-04-24T14:38:03;10.65;;;2.00;;
76023;SDS011;64719;52.124;6.226;2023-04-24T14:40:31;13.07;;;2.78;;
76023;SDS011;64719;52.124;6.226;2023-04-24T14:42:57;7.00;;;2.30;;
76023;SDS011;64719;52.124;6.226;2023-04-24T14:45:24;7.18;;;1.80;;
76023;SDS011;64719;52.124;6.226;2023-04-24T14:47:52;9.32;;;2.33;;
76023;SDS011;64719;52.124;6.226;2023-04-24T14:50:19;6.75;;;1.90;;
76023;SDS011;64719;52.124;6.226;2023-04-24T14:52:46;8.05;;;2.30;;
76023;SDS011;64719;52.124;6.226;2023-04-24T14:55:13;6.50;;;2.00;;
76023;SDS011;64719;52.124;6.226;2023-04-24T14:57:41;8.82;;;2.15;;
76023;SDS011;64719;52.124;6.226;2023-04-24T15:00:08;7.97;;;2.45;;
76023;SDS011;64719;52.124;6.226;2023-04-24T15:02:36;8.18;;;2.00;;